Time;durP1;ratioP1;P1;durP2;ratioP2;P2;SDS_P1;SDS_P2;PMS_P1;PMS_P2;Temp;Humidity;BMP_temperature;BMP_pressure;BME280_temperature;BME280_humidity;BME280_pressure;Samples;Min_cycle;Max_cycle;Signal;HPM_P1;HPM_P2
2020/12/07 14:52:12;;;;;;;9.10;6.20;;;;;;;3.34;100.00;95029.19;5102959;27;20938;-51
2020/12/07 14:54:43;;;;;;;6.07;4.53;;;;;;;3.44;100.00;95030.28;5069420;27;20618;-52
2020/12/07 14:57:29;;;;;;;6.72;4.30;;;;;;;3.52;100.00;95028.09;5066216;28;20638;-44
2020/12/07 15:03:07;;;;;;;9.00;4.43;;;;;;;3.76;99.73;95020.66;5063340;28;20708;-44
2020/12/07 15:05:34;;;;;;;8.32;4.70;;;;;;;3.84;98.68;95032.13;5017247;28;20670;-44
2020/12/07 15:13:53;;;;;;;7.22;4.82;;;;;;;3.88;97.49;95028.44;5056711;27;20217;-44
2020/12/07 15:16:21;;;;;;;5.97;4.20;;;;;;;3.80;97.65;95032.38;5065180;28;20593;-45
2020/12/07 15:18:49;;;;;;;7.68;5.22;;;;;;;3.69;97.79;95030.50;5061795;27;20563;-45
2020/12/07 15:21:16;;;;;;;6.32;4.20;;;;;;;3.76;97.89;95029.16;5065612;28;20567;-44
2020/12/07 15:23:44;;;;;;;8.35;4.53;;;;;;;3.75;97.39;95024.94;5056869;27;20218;-44
2020/12/07 15:26:11;;;;;;;7.07;4.75;;;;;;;3.78;97.98;95019.63;5063645;28;20706;-51
2020/12/07 15:28:38;;;;;;;9.05;6.07;;;;;;;3.73;98.23;95026.81;5065960;27;20218;-51
2020/12/07 15:31:08;;;;;;;6.70;4.60;;;;;;;3.67;98.28;95019.44;5060907;28;20265;-51
2020/12/07 15:33:36;;;;;;;5.70;3.67;;;;;;;3.72;98.35;95025.16;5055708;28;20679;-52
2020/12/07 15:36:06;;;;;;;10.88;4.53;;;;;;;3.77;97.60;95030.00;5059887;28;20194;-51
2020/12/07 15:38:38;;;;;;;7.88;4.38;;;;;;;3.72;98.21;95021.72;5054851;27;20721;-52
2020/12/07 15:41:09;;;;;;;7.00;4.47;;;;;;;3.75;97.56;95024.13;5058165;28;20657;-51
2020/12/07 15:43:36;;;;;;;6.97;4.50;;;;;;;3.68;97.89;95025.44;5056169;28;20845;-52
2020/12/07 15:46:07;;;;;;;9.45;4.85;;;;;;;3.68;97.93;95021.09;5059206;28;20642;-52
2020/12/07 15:48:33;;;;;;;4.82;4.30;;;;;;;3.68;98.08;95026.25;5063962;27;20321;-45
2020/12/07 15:51:00;;;;;;;11.45;3.50;;;;;;;3.71;97.60;95030.38;5062676;28;20256;-45
2020/12/07 15:53:27;;;;;;;7.88;4.03;;;;;;;3.65;97.94;95023.88;5059202;28;20745;-46
2020/12/07 15:55:54;;;;;;;6.60;4.15;;;;;;;3.61;97.72;95019.81;5061565;28;20552;-50
2020/12/07 15:58:22;;;;;;;8.95;4.40;;;;;;;3.62;97.94;95021.50;5058053;28;20487;-50
2020/12/07 16:00:49;;;;;;;11.50;5.65;;;;;;;3.66;98.55;95020.38;5065603;28;20627;-50
2020/12/07 16:03:16;;;;;;;7.75;5.20;;;;;;;3.64;97.61;95011.94;5047041;28;20543;-51
2020/12/07 16:05:44;;;;;;;11.38;6.18;;;;;;;3.63;97.14;95015.44;5045640;28;20646;-51
2020/12/07 16:08:12;;;;;;;20.02;9.07;;;;;;;3.43;98.05;94984.94;5047480;28;20226;-51
2020/12/07 16:10:39;;;;;;;11.60;6.15;;;;;;;3.65;97.79;95012.75;5050594;28;20599;-51
2020/12/07 16:13:07;;;;;;;14.43;8.07;;;;;;;3.26;98.43;94959.44;5046473;28;20199;-51
2020/12/07 16:15:35;;;;;;;11.52;5.90;;;;;;;3.62;98.38;95018.91;5042800;28;20589;-44
2020/12/07 16:18:02;;;;;;;24.95;10.93;;;;;;;3.60;98.25;95012.22;5047170;28;20641;-44
2020/12/07 16:20:28;;;;;;;7.18;4.75;;;;;;;3.56;98.35;95011.56;5052766;28;20669;-53
2020/12/07 16:22:55;;;;;;;13.02;5.00;;;;;;;3.55;97.43;95014.22;5041010;28;20283;-51
2020/12/07 16:25:23;;;;;;;7.82;4.97;;;;;;;3.44;98.25;95027.72;5048123;28;20808;-43
2020/12/07 16:30:45;;;;;;;7.47;4.40;;;;;;;3.42;98.54;95039.00;4964569;26;20504;-51
2020/12/07 16:33:13;;;;;;;7.50;3.83;;;;;;;3.33;98.76;95034.41;5020421;28;20219;-44
2020/12/07 16:35:39;;;;;;;6.05;4.20;;;;;;;3.04;98.75;94976.19;5009146;28;20734;-44
2020/12/07 16:38:06;;;;;;;7.45;4.00;;;;;;;3.32;98.74;95031.00;5005856;28;20705;-43
2020/12/07 16:40:33;;;;;;;7.43;4.47;;;;;;;3.33;98.91;95035.25;4997684;28;20703;-50
2020/12/07 16:43:01;;;;;;;6.30;4.13;;;;;;;3.31;99.27;95033.69;4996306;28;20728;-51
2020/12/07 16:45:28;;;;;;;7.85;4.22;;;;;;;3.34;99.50;95036.91;4998396;28;20353;-43
2020/12/07 16:47:56;;;;;;;4.75;3.53;;;;;;;3.31;100.00;95043.97;5003721;28;20590;-43
2020/12/07 16:50:23;;;;;;;7.03;4.55;;;;;;;3.30;99.88;95038.00;5008126;28;22126;-51
2020/12/07 16:52:50;;;;;;;7.15;4.30;;;;;;;3.31;99.40;95039.63;5006073;28;20207;-50
2020/12/07 16:55:16;;;;;;;6.70;3.85;;;;;;;3.27;99.23;95048.47;5012050;28;20250;-51
2020/12/07 16:57:43;;;;;;;7.43;4.20;;;;;;;3.22;99.28;95035.03;5014580;28;20596;-51
2020/12/07 17:00:10;;;;;;;6.53;4.03;;;;;;;3.14;99.47;95037.25;5008144;28;20220;-43
2020/12/07 17:02:37;;;;;;;6.88;4.85;;;;;;;3.12;99.76;95038.25;5007678;28;20287;-43
2020/12/07 17:05:09;;;;;;;6.05;4.00;;;;;;;3.15;99.19;95032.94;5005072;28;20230;-44
2020/12/07 17:07:36;;;;;;;7.75;4.35;;;;;;;3.12;99.64;95033.94;5004949;28;20850;-43
2020/12/07 17:10:03;;;;;;;8.50;5.03;;;;;;;3.07;99.50;95035.94;4995767;28;20511;-51
2020/12/07 17:12:31;;;;;;;9.55;4.72;;;;;;;2.98;99.10;95031.34;5004648;28;20699;-51
2020/12/07 17:15:00;;;;;;;6.85;3.92;;;;;;;3.00;99.17;95036.41;5009278;28;20266;-49
2020/12/07 17:17:27;;;;;;;8.80;5.15;;;;;;;2.93;99.38;95033.34;5006801;28;20590;-49
2020/12/07 17:19:54;;;;;;;7.97;4.85;;;;;;;2.81;99.16;95013.50;5012210;28;20325;-42
2020/12/07 17:22:22;;;;;;;8.23;4.90;;;;;;;2.95;99.42;95033.25;4999669;28;20648;-42
2020/12/07 17:24:49;;;;;;;7.95;4.78;;;;;;;3.00;99.77;95038.97;5006303;28;20864;-42
2020/12/07 17:27:15;;;;;;;9.70;4.45;;;;;;;2.93;99.24;95033.34;5008434;28;20669;-42
2020/12/07 17:29:42;;;;;;;7.50;4.80;;;;;;;2.85;98.77;95020.13;5006811;28;20691;-42
2020/12/07 17:32:09;;;;;;;8.00;4.63;;;;;;;2.90;99.56;95023.25;5009096;28;20289;-50
2020/12/07 17:34:36;;;;;;;12.07;5.40;;;;;;;2.84;99.48;95018.47;5010107;28;20647;-49
2020/12/07 17:37:03;;;;;;;9.55;4.95;;;;;;;2.91;99.48;95031.78;4997197;28;20593;-50
2020/12/07 17:39:31;;;;;;;8.18;4.30;;;;;;;2.83;99.26;95021.94;5007233;28;20603;-42
2020/12/07 17:41:58;;;;;;;8.70;5.28;;;;;;;2.96;99.88;95017.78;5006560;28;20270;-42
2020/12/07 17:44:25;;;;;;;7.65;4.85;;;;;;;2.98;99.76;95030.50;5004839;28;20229;-44
2020/12/07 17:46:52;;;;;;;8.70;4.78;;;;;;;3.08;99.45;95037.59;5007467;28;20561;-42
2020/12/07 17:49:20;;;;;;;8.05;4.88;;;;;;;2.99;98.71;95038.13;5007555;28;20636;-42
2020/12/07 17:51:47;;;;;;;9.05;5.07;;;;;;;3.00;99.09;95039.78;5008108;28;20589;-42
2020/12/07 17:54:14;;;;;;;10.27;5.00;;;;;;;3.02;98.77;95037.94;5006904;28;20539;-42
2020/12/07 17:56:42;;;;;;;6.80;4.05;;;;;;;3.02;97.91;95043.09;5015756;28;20271;-42
2020/12/07 17:59:10;;;;;;;7.30;3.85;;;;;;;2.79;97.40;95035.88;5009146;28;20225;-41
2020/12/07 18:01:37;;;;;;;8.40;4.53;;;;;;;2.64;98.56;95046.19;5009898;28;20195;-42
2020/12/07 18:04:04;;;;;;;11.70;4.35;;;;;;;2.58;98.84;95042.22;5005659;28;20291;-42
2020/12/07 18:06:32;;;;;;;7.00;4.47;;;;;;;2.64;99.52;95041.88;5005367;28;20212;-42
2020/12/07 18:08:59;;;;;;;8.85;4.70;;;;;;;2.69;98.47;95044.19;5008950;28;20851;-42
2020/12/07 18:11:29;;;;;;;9.65;4.38;;;;;;;2.70;98.51;95038.97;5005526;28;20226;-42
2020/12/07 18:13:57;;;;;;;9.02;4.95;;;;;;;2.79;98.03;95040.19;5006182;28;20598;-42
2020/12/07 18:16:29;;;;;;;7.88;4.20;;;;;;;2.82;98.32;95038.28;5007074;28;20711;-42
2020/12/07 18:18:56;;;;;;;8.75;4.43;;;;;;;2.84;97.50;95033.03;5005420;28;20843;-50
2020/12/07 18:21:25;;;;;;;8.35;4.65;;;;;;;2.84;97.21;95040.75;5006660;28;20635;-49
2020/12/07 18:23:52;;;;;;;6.88;3.67;;;;;;;2.81;97.43;95040.94;5004920;28;20218;-48
2020/12/07 18:26:20;;;;;;;11.57;4.63;;;;;;;2.84;97.24;95036.44;5007867;28;20573;-42
2020/12/07 18:28:47;;;;;;;7.13;3.65;;;;;;;2.95;97.66;95035.84;5007249;28;20686;-42
2020/12/07 18:31:15;;;;;;;9.85;4.00;;;;;;;2.94;96.89;95035.00;5007774;28;20567;-42
2020/12/07 18:33:42;;;;;;;7.80;4.53;;;;;;;2.75;96.33;95039.53;5007326;28;20251;-41
2020/12/07 18:36:10;;;;;;;7.60;4.25;;;;;;;2.57;97.08;95029.50;5005380;28;20572;-48
2020/12/07 18:38:38;;;;;;;4.88;3.65;;;;;;;2.61;97.53;95033.53;5008191;28;20858;-49
2020/12/07 18:41:05;;;;;;;6.07;3.65;;;;;;;2.64;97.38;95034.16;5006755;28;20202;-42
2020/12/07 18:43:32;;;;;;;5.57;3.75;;;;;;;2.38;97.41;95004.03;5004744;28;20649;-42
2020/12/07 18:45:59;;;;;;;10.70;4.88;;;;;;;2.42;97.30;95036.28;5008211;28;20532;-42
2020/12/07 18:48:27;;;;;;;17.75;8.05;;;;;;;2.32;97.98;95030.03;5009066;28;20264;-42
2020/12/07 18:50:54;;;;;;;13.80;7.00;;;;;;;2.29;98.46;95035.31;5005693;28;20356;-42
2020/12/07 18:53:21;;;;;;;17.45;9.30;;;;;;;2.21;98.79;95037.47;4995971;28;20248;-42
2020/12/07 18:55:47;;;;;;;10.20;6.47;;;;;;;2.19;99.11;95048.72;5013221;28;20193;-42
2020/12/07 18:58:15;;;;;;;5.72;3.60;;;;;;;2.14;99.08;95051.53;5008476;28;20230;-42
2020/12/07 19:00:41;;;;;;;8.55;5.00;;;;;;;2.05;99.69;95046.91;5013034;28;20572;-42
2020/12/07 19:03:08;;;;;;;9.60;5.65;;;;;;;1.95;100.00;95053.47;5007076;28;20328;-42
2020/12/07 19:05:36;;;;;;;9.68;5.78;;;;;;;1.68;100.00;95016.47;5005404;28;20879;-42
2020/12/07 19:08:03;;;;;;;8.02;4.78;;;;;;;1.85;100.00;95048.91;5003345;28;20192;-42
2020/12/07 19:10:30;;;;;;;11.40;5.85;;;;;;;1.83;100.00;95051.53;5008344;28;20287;-42
2020/12/07 19:12:57;;;;;;;11.07;5.75;;;;;;;1.75;100.00;95043.44;5007062;28;20632;-49
2020/12/07 19:15:24;;;;;;;10.07;5.40;;;;;;;1.76;100.00;95045.09;5005199;28;20826;-42
2020/12/07 19:17:51;;;;;;;9.48;4.80;;;;;;;1.68;100.00;95044.66;5008491;28;20585;-44
2020/12/07 19:20:18;;;;;;;9.60;5.47;;;;;;;1.63;100.00;95038.94;5009331;28;20262;-42
2020/12/07 19:22:46;;;;;;;8.82;5.53;;;;;;;1.61;100.00;95035.63;5005124;28;20648;-44
2020/12/07 19:25:17;;;;;;;12.00;4.85;;;;;;;1.57;100.00;95039.28;5006161;28;20614;-44
2020/12/07 19:27:45;;;;;;;10.45;6.82;;;;;;;1.55;100.00;95041.06;5004967;28;20710;-51
2020/12/07 19:30:12;;;;;;;12.30;5.78;;;;;;;1.56;100.00;95037.59;5005718;28;20945;-50
2020/12/07 19:32:40;;;;;;;10.75;6.30;;;;;;;1.55;100.00;95041.06;5006602;28;20760;-51
2020/12/07 19:35:07;;;;;;;10.07;6.32;;;;;;;1.60;100.00;95041.69;5005266;28;20594;-51
2020/12/07 19:37:34;;;;;;;13.13;6.88;;;;;;;1.67;100.00;95048.13;5002276;28;20194;-51
2020/12/07 19:40:03;;;;;;;13.25;6.85;;;;;;;1.71;100.00;95052.19;5010016;28;20678;-51
2020/12/07 19:42:30;;;;;;;10.65;6.57;;;;;;;1.78;100.00;95043.25;5008312;28;20205;-50
2020/12/07 19:44:57;;;;;;;14.80;7.25;;;;;;;1.52;100.00;94984.03;5013238;28;20222;-51
2020/12/07 19:47:24;;;;;;;13.35;6.80;;;;;;;1.90;100.00;95032.34;5010497;28;20299;-51
2020/12/07 19:49:51;;;;;;;13.00;7.28;;;;;;;1.96;100.00;95039.72;5009002;28;20235;-50
2020/12/07 19:52:17;;;;;;;12.60;6.35;;;;;;;1.95;100.00;95034.66;5011753;28;20655;-44
2020/12/07 19:54:44;;;;;;;14.77;7.78;;;;;;;2.01;100.00;95032.63;5010573;28;20242;-50
2020/12/07 19:57:12;;;;;;;10.43;6.50;;;;;;;2.01;100.00;95029.22;5018746;28;20928;-51
2020/12/07 19:59:39;;;;;;;11.90;6.70;;;;;;;2.00;100.00;95038.63;5006444;28;20318;-51
2020/12/07 20:02:07;;;;;;;16.25;6.85;;;;;;;1.97;100.00;95036.25;5012869;28;20519;-52
2020/12/07 20:04:35;;;;;;;14.48;7.18;;;;;;;1.94;100.00;95043.28;5001562;28;20230;-51
2020/12/07 20:07:02;;;;;;;11.75;6.38;;;;;;;1.95;100.00;95040.63;5001195;28;20217;-51
2020/12/07 20:09:29;;;;;;;10.55;6.18;;;;;;;1.95;100.00;95035.50;5000263;28;20622;-52
2020/12/07 20:11:56;;;;;;;11.57;6.60;;;;;;;1.59;100.00;94993.03;5010042;28;20343;-44
2020/12/07 20:14:24;;;;;;;16.25;7.40;;;;;;;1.72;100.00;95035.06;5005730;28;20307;-44
2020/12/07 20:16:52;;;;;;;15.20;7.13;;;;;;;1.72;100.00;95038.47;5010484;28;20206;-44
2020/12/07 20:19:19;;;;;;;13.27;7.05;;;;;;;1.73;100.00;95036.72;5008829;28;20773;-44
2020/12/07 20:21:46;;;;;;;12.32;7.15;;;;;;;1.74;100.00;95033.25;5011885;28;20722;-44
2020/12/07 20:24:14;;;;;;;11.13;7.18;;;;;;;1.71;100.00;95033.41;5008943;28;20257;-44
2020/12/07 20:26:41;;;;;;;14.73;7.70;;;;;;;1.70;100.00;95034.34;5009772;28;20532;-44
2020/12/07 20:29:08;;;;;;;14.95;7.85;;;;;;;1.73;100.00;95029.88;5010178;28;20322;-44
2020/12/07 20:31:36;;;;;;;14.57;7.50;;;;;;;1.75;100.00;95029.75;5008778;28;20718;-44
2020/12/07 20:34:03;;;;;;;13.90;7.75;;;;;;;1.77;100.00;95023.66;5006443;28;20269;-46
2020/12/07 20:36:32;;;;;;;14.57;7.93;;;;;;;1.74;100.00;95028.13;4998655;28;20209;-44
2020/12/07 20:38:58;;;;;;;14.48;7.75;;;;;;;1.67;100.00;95030.19;4997188;28;20691;-44
2020/12/07 20:41:26;;;;;;;15.20;8.15;;;;;;;1.65;100.00;95029.44;4998669;28;20258;-44
2020/12/07 20:43:53;;;;;;;15.27;8.48;;;;;;;1.72;100.00;95024.81;5007520;28;20294;-44
2020/12/07 20:46:20;;;;;;;14.40;8.05;;;;;;;1.71;100.00;95021.41;5007892;28;20527;-44
2020/12/07 20:48:48;;;;;;;18.25;7.35;;;;;;;1.69;100.00;95015.53;5014783;28;20243;-44
2020/12/07 20:51:15;;;;;;;14.38;9.23;;;;;;;1.76;100.00;95022.00;5006124;28;20218;-44
2020/12/07 20:53:43;;;;;;;15.00;8.10;;;;;;;1.68;100.00;95033.56;5006201;28;20727;-44
2020/12/07 20:56:10;;;;;;;15.75;8.00;;;;;;;1.59;100.00;95024.63;5015048;28;20262;-45
2020/12/07 20:58:37;;;;;;;19.70;8.85;;;;;;;1.53;100.00;95021.56;5009958;28;20607;-44
2020/12/07 21:01:05;;;;;;;14.80;7.70;;;;;;;1.45;100.00;95021.97;5005224;28;20307;-43
2020/12/07 21:03:32;;;;;;;14.50;8.05;;;;;;;1.34;100.00;95026.81;5005357;28;20225;-43
2020/12/07 21:06:01;;;;;;;15.35;7.50;;;;;;;1.32;100.00;95033.75;5009466;28;20197;-51
2020/12/07 21:08:28;;;;;;;13.63;7.53;;;;;;;1.29;100.00;95028.81;5008234;28;20224;-50
2020/12/07 21:10:55;;;;;;;15.45;7.40;;;;;;;1.28;100.00;95029.72;5006576;28;20267;-51
2020/12/07 21:13:23;;;;;;;13.05;7.20;;;;;;;1.31;100.00;95031.25;5006594;28;20255;-50
2020/12/07 21:15:50;;;;;;;15.93;8.98;;;;;;;1.38;100.00;95033.44;5007521;28;20511;-51
2020/12/07 21:18:17;;;;;;;23.48;9.05;;;;;;;1.40;100.00;95026.50;5006026;28;20228;-51
2020/12/07 21:20:43;;;;;;;13.48;7.75;;;;;;;1.46;100.00;95027.91;5010040;28;20228;-50
2020/12/07 21:23:11;;;;;;;14.50;8.07;;;;;;;1.42;100.00;95034.94;5003562;28;20554;-51
2020/12/07 21:25:38;;;;;;;14.55;8.55;;;;;;;1.43;100.00;95039.16;5009750;28;20209;-51
2020/12/07 21:28:05;;;;;;;14.10;7.72;;;;;;;1.43;100.00;95035.78;5006057;28;20574;-51
2020/12/07 21:30:32;;;;;;;14.65;8.48;;;;;;;1.51;100.00;95029.34;5009536;28;20935;-51
2020/12/07 21:32:59;;;;;;;14.10;8.57;;;;;;;1.52;100.00;95041.25;5009397;28;20251;-50
2020/12/07 21:35:26;;;;;;;15.77;8.30;;;;;;;1.55;100.00;95041.06;5008748;28;20196;-43
2020/12/07 21:37:54;;;;;;;13.90;8.00;;;;;;;1.51;100.00;95039.59;5006857;28;20647;-43
2020/12/07 21:40:22;;;;;;;17.55;7.97;;;;;;;1.57;100.00;95038.44;5005952;28;20197;-43
2020/12/07 21:42:50;;;;;;;14.85;8.65;;;;;;;1.59;100.00;95045.16;5011577;28;20639;-43
2020/12/07 21:45:17;;;;;;;14.60;7.05;;;;;;;1.62;100.00;95037.28;5007334;28;20244;-52
2020/12/07 21:47:44;;;;;;;12.50;7.82;;;;;;;1.49;100.00;95010.63;5007351;28;20582;-50
2020/12/07 21:50:11;;;;;;;13.35;7.90;;;;;;;1.75;100.00;95028.03;5003245;28;20221;-51
2020/12/07 21:52:39;;;;;;;14.35;7.85;;;;;;;1.77;100.00;95031.34;5008411;28;20248;-51
2020/12/07 21:55:06;;;;;;;25.30;12.27;;;;;;;1.81;100.00;95026.88;5012474;28;20362;-50
2020/12/07 21:57:33;;;;;;;11.45;6.70;;;;;;;1.85;100.00;95029.19;5012484;28;20594;-52
2020/12/07 22:00:01;;;;;;;11.07;6.90;;;;;;;1.79;100.00;95024.44;5008321;28;20224;-52
2020/12/07 22:02:29;;;;;;;13.23;7.40;;;;;;;1.71;100.00;95025.72;5011152;28;20193;-51
2020/12/07 22:04:55;;;;;;;11.48;7.35;;;;;;;1.72;100.00;95032.50;5000620;28;20248;-51
2020/12/07 22:07:22;;;;;;;11.43;6.82;;;;;;;1.71;100.00;95026.53;5007235;28;20277;-50
2020/12/07 22:09:49;;;;;;;10.05;6.20;;;;;;;1.69;100.00;95033.50;5005659;28;20322;-51
2020/12/07 22:12:16;;;;;;;12.57;6.68;;;;;;;1.74;100.00;95038.38;5007547;28;20708;-51
2020/12/07 22:14:44;;;;;;;10.73;6.47;;;;;;;1.79;100.00;95029.56;5008503;28;20667;-51
2020/12/07 22:17:11;;;;;;;14.23;8.27;;;;;;;1.78;100.00;95042.44;5008111;28;20288;-50
2020/12/07 22:19:37;;;;;;;11.40;6.93;;;;;;;1.88;100.00;95036.75;5007421;28;20676;-50
2020/12/07 22:22:05;;;;;;;12.27;7.00;;;;;;;2.02;99.68;95031.72;5007080;28;20643;-51
2020/12/07 22:24:31;;;;;;;10.70;6.93;;;;;;;1.87;99.15;95036.81;5007116;28;20392;-50
2020/12/07 22:27:00;;;;;;;14.27;7.10;;;;;;;1.76;99.42;95039.94;5005209;28;20396;-51
2020/12/07 22:29:27;;;;;;;11.75;7.00;;;;;;;1.09;99.93;94930.81;5005659;28;20597;-50
2020/12/07 22:31:55;;;;;;;13.60;7.22;;;;;;;1.67;100.00;95030.19;5010803;28;20617;-50
2020/12/07 22:34:23;;;;;;;13.25;6.85;;;;;;;1.64;100.00;95025.22;5005506;28;20671;-50
2020/12/07 22:36:50;;;;;;;16.23;8.00;;;;;;;1.67;100.00;95019.09;5006223;28;20256;-51
2020/12/07 22:39:20;;;;;;;13.80;7.85;;;;;;;1.72;100.00;95023.09;5007534;28;20734;-50
2020/12/07 22:41:47;;;;;;;13.60;7.85;;;;;;;1.83;100.00;95025.91;5007426;28;20224;-51
2020/12/07 22:44:13;;;;;;;12.15;7.72;;;;;;;1.93;100.00;95016.78;5005688;28;20588;-44
2020/12/07 22:46:40;;;;;;;13.30;7.10;;;;;;;1.94;99.50;95003.09;5005245;28;20194;-44
2020/12/07 22:49:08;;;;;;;13.57;6.90;;;;;;;1.83;99.38;95010.50;5008317;28;20319;-44
2020/12/07 22:51:35;;;;;;;12.20;7.32;;;;;;;1.79;99.89;95024.44;4996590;28;20668;-44
2020/12/07 22:54:02;;;;;;;10.52;6.28;;;;;;;1.88;100.00;95012.81;4996305;28;20680;-44
2020/12/07 22:56:29;;;;;;;13.30;8.00;;;;;;;1.94;99.85;95015.91;5012330;28;20200;-43
2020/12/07 22:59:33;;;;;;;12.80;7.35;;;;;;;2.09;99.71;95012.50;5006143;28;20319;-44
2020/12/07 23:01:59;;;;;;;14.07;7.13;;;;;;;2.21;99.31;95016.94;5008457;28;20674;-39
2020/12/07 23:04:27;;;;;;;13.10;7.38;;;;;;;2.21;99.16;95009.25;5006689;28;20671;-39
2020/12/07 23:06:55;;;;;;;15.95;8.00;;;;;;;2.24;98.88;95019.34;5003387;28;20225;-39
2020/12/07 23:09:23;;;;;;;12.77;7.47;;;;;;;2.12;98.12;95012.31;5009906;28;20229;-39
2020/12/07 23:11:50;;;;;;;13.05;7.20;;;;;;;1.96;98.50;94995.28;5010831;28;20202;-39
2020/12/07 23:14:17;;;;;;;11.60;7.55;;;;;;;1.95;99.52;95004.72;5012977;28;20316;-47
2020/12/07 23:16:44;;;;;;;11.85;6.90;;;;;;;1.89;99.55;94999.94;5010261;28;20711;-46
2020/12/07 23:19:10;;;;;;;13.43;7.05;;;;;;;1.91;99.37;95000.66;5011147;28;20659;-47
2020/12/07 23:21:38;;;;;;;11.20;7.43;;;;;;;1.96;99.46;95000.41;5012523;28;20579;-47
2020/12/07 23:27:53;;;;;;;13.20;7.93;;;;;;;2.15;99.88;94996.75;5024881;28;20579;-39
2020/12/07 23:30:21;;;;;;;14.77;8.25;;;;;;;2.28;99.03;95002.06;5009635;28;20233;-39
2020/12/07 23:32:50;;;;;;;13.50;7.60;;;;;;;2.31;98.71;94996.72;5011126;28;20209;-39
2020/12/07 23:35:18;;;;;;;11.75;7.88;;;;;;;2.12;98.28;94994.38;5010017;28;20525;-40
2020/12/07 23:37:47;;;;;;;14.10;8.05;;;;;;;1.96;99.12;94996.13;5005014;28;20297;-39
2020/12/07 23:40:14;;;;;;;13.90;8.93;;;;;;;1.91;99.11;94982.72;5010439;28;20232;-39
2020/12/07 23:42:43;;;;;;;11.68;6.85;;;;;;;1.87;99.09;94983.81;5007058;28;20224;-39
2020/12/07 23:45:11;;;;;;;16.75;8.82;;;;;;;1.79;99.86;94983.41;5010231;28;20231;-39
2020/12/07 23:47:41;;;;;;;14.80;8.90;;;;;;;1.80;100.00;94984.19;5011109;28;20628;-40
2020/12/07 23:50:10;;;;;;;19.17;9.32;;;;;;;1.71;100.00;94966.75;5007977;28;20715;-39
2020/12/07 23:52:38;;;;;;;14.85;8.50;;;;;;;1.74;100.00;94974.28;5003999;28;20655;-39
2020/12/07 23:55:06;;;;;;;15.25;9.20;;;;;;;1.73;100.00;94967.50;5008268;28;20221;-39
2020/12/07 23:57:33;;;;;;;13.82;8.00;;;;;;;1.81;100.00;94976.44;5011742;28;20491;-39
2020/12/07 23:59:59;;;;;;;14.75;8.60;;;;;;;1.80;100.00;94964.53;5009745;28;20623;-40
